sensor_id;sensor_type;location;lat;lon;timestamp;P1;durP1;ratioP1;P2;durP2;ratioP2
5491;SDS011;2768;53.540;10.224;2023-12-29T00:04:42;6.50;;;2.23;;
5491;SDS011;2768;53.540;10.224;2023-12-29T00:10:35;6.83;;;2.37;;
5491;SDS011;2768;53.540;10.224;2023-12-29T00:16:28;4.60;;;1.83;;
5491;SDS011;2768;53.540;10.224;2023-12-29T00:22:23;10.07;;;2.30;;
5491;SDS011;2768;53.540;10.224;2023-12-29T00:28:19;7.70;;;1.97;;
5491;SDS011;2768;53.540;10.224;2023-12-29T00:34:33;7.53;;;2.23;;
5491;SDS011;2768;53.540;10.224;2023-12-29T00:40:31;10.00;;;3.47;;
5491;SDS011;2768;53.540;10.224;2023-12-29T00:46:25;6.00;;;1.93;;
5491;SDS011;2768;53.540;10.224;2023-12-29T00:52:19;4.67;;;2.17;;
5491;SDS011;2768;53.540;10.224;2023-12-29T00:58:13;5.97;;;2.03;;
5491;SDS011;2768;53.540;10.224;2023-12-29T01:04:07;6.83;;;2.17;;
5491;SDS011;2768;53.540;10.224;2023-12-29T01:10:01;5.30;;;2.27;;
5491;SDS011;2768;53.540;10.224;2023-12-29T01:15:56;5.73;;;2.37;;
5491;SDS011;2768;53.540;10.224;2023-12-29T01:21:49;5.07;;;1.70;;
5491;SDS011;2768;53.540;10.224;2023-12-29T01:27:43;5.97;;;1.97;;
5491;SDS011;2768;53.540;10.224;2023-12-29T01:33:38;8.63;;;2.43;;
5491;SDS011;2768;53.540;10.224;2023-12-29T01:39:32;3.10;;;1.70;;
5491;SDS011;2768;53.540;10.224;2023-12-29T01:45:26;7.70;;;2.77;;
5491;SDS011;2768;53.540;10.224;2023-12-29T01:51:23;9.40;;;2.43;;
5491;SDS011;2768;53.540;10.224;2023-12-29T01:57:19;6.80;;;1.67;;
5491;SDS011;2768;53.540;10.224;2023-12-29T02:03:12;7.50;;;2.57;;
5491;SDS011;2768;53.540;10.224;2023-12-29T02:09:07;7.57;;;1.80;;
5491;SDS011;2768;53.540;10.224;2023-12-29T02:15:02;14.40;;;2.80;;
5491;SDS011;2768;53.540;10.224;2023-12-29T02:20:56;5.77;;;1.73;;
5491;SDS011;2768;53.540;10.224;2023-12-29T02:26:53;4.53;;;1.87;;
5491;SDS011;2768;53.540;10.224;2023-12-29T02:32:50;6.37;;;2.00;;
5491;SDS011;2768;53.540;10.224;2023-12-29T02:38:48;4.70;;;1.90;;
5491;SDS011;2768;53.540;10.224;2023-12-29T02:44:43;8.07;;;2.47;;
5491;SDS011;2768;53.540;10.224;2023-12-29T02:50:37;3.83;;;1.67;;
5491;SDS011;2768;53.540;10.224;2023-12-29T02:56:30;4.00;;;1.80;;
5491;SDS011;2768;53.540;10.224;2023-12-29T03:02:25;5.70;;;1.90;;
5491;SDS011;2768;53.540;10.224;2023-12-29T03:08:18;3.77;;;1.73;;
5491;SDS011;2768;53.540;10.224;2023-12-29T03:14:12;5.10;;;1.47;;
5491;SDS011;2768;53.540;10.224;2023-12-29T03:20:09;2.70;;;1.50;;
5491;SDS011;2768;53.540;10.224;2023-12-29T03:26:04;2.40;;;1.40;;
5491;SDS011;2768;53.540;10.224;2023-12-29T03:31:57;3.90;;;1.33;;
5491;SDS011;2768;53.540;10.224;2023-12-29T03:37:51;4.00;;;1.63;;
5491;SDS011;2768;53.540;10.224;2023-12-29T03:43:45;5.20;;;1.30;;
5491;SDS011;2768;53.540;10.224;2023-12-29T03:49:40;2.17;;;1.20;;
5491;SDS011;2768;53.540;10.224;2023-12-29T03:55:35;3.27;;;1.27;;
5491;SDS011;2768;53.540;10.224;2023-12-29T04:01:28;1.87;;;0.90;;
5491;SDS011;2768;53.540;10.224;2023-12-29T04:07:22;3.53;;;1.30;;
5491;SDS011;2768;53.540;10.224;2023-12-29T04:13:16;1.50;;;1.17;;
5491;SDS011;2768;53.540;10.224;2023-12-29T04:19:10;3.00;;;1.00;;
5491;SDS011;2768;53.540;10.224;2023-12-29T04:25:06;1.70;;;1.07;;
5491;SDS011;2768;53.540;10.224;2023-12-29T04:31:02;1.03;;;0.77;;
5491;SDS011;2768;53.540;10.224;2023-12-29T04:36:56;1.07;;;0.80;;
5491;SDS011;2768;53.540;10.224;2023-12-29T04:42:50;0.90;;;0.67;;
5491;SDS011;2768;53.540;10.224;2023-12-29T04:48:45;2.20;;;0.70;;
5491;SDS011;2768;53.540;10.224;2023-12-29T04:54:38;1.77;;;1.03;;
5491;SDS011;2768;53.540;10.224;2023-12-29T05:00:32;2.17;;;0.90;;
5491;SDS011;2768;53.540;10.224;2023-12-29T05:06:26;2.97;;;1.40;;
5491;SDS011;2768;53.540;10.224;2023-12-29T05:12:19;1.57;;;0.80;;
5491;SDS011;2768;53.540;10.224;2023-12-29T05:18:16;2.30;;;1.00;;
5491;SDS011;2768;53.540;10.224;2023-12-29T05:24:11;2.70;;;1.27;;
5491;SDS011;2768;53.540;10.224;2023-12-29T05:30:04;4.03;;;1.43;;
5491;SDS011;2768;53.540;10.224;2023-12-29T05:35:58;4.27;;;0.90;;
5491;SDS011;2768;53.540;10.224;2023-12-29T05:41:59;3.07;;;1.00;;
5491;SDS011;2768;53.540;10.224;2023-12-29T05:47:53;1.83;;;1.03;;
5491;SDS011;2768;53.540;10.224;2023-12-29T05:53:46;4.33;;;1.13;;
5491;SDS011;2768;53.540;10.224;2023-12-29T05:59:41;2.20;;;1.10;;
5491;SDS011;2768;53.540;10.224;2023-12-29T06:05:34;2.63;;;1.07;;
5491;SDS011;2768;53.540;10.224;2023-12-29T06:11:27;3.60;;;0.93;;
5491;SDS011;2768;53.540;10.224;2023-12-29T06:17:22;4.13;;;1.37;;
5491;SDS011;2768;53.540;10.224;2023-12-29T06:23:15;5.43;;;1.40;;
5491;SDS011;2768;53.540;10.224;2023-12-29T06:29:09;1.83;;;1.40;;
5491;SDS011;2768;53.540;10.224;2023-12-29T06:35:04;4.17;;;1.60;;
5491;SDS011;2768;53.540;10.224;2023-12-29T06:40:58;4.70;;;2.10;;
5491;SDS011;2768;53.540;10.224;2023-12-29T06:46:51;4.60;;;1.63;;
5491;SDS011;2768;53.540;10.224;2023-12-29T06:52:46;5.37;;;1.80;;
5491;SDS011;2768;53.540;10.224;2023-12-29T06:58:39;5.53;;;1.90;;
5491;SDS011;2768;53.540;10.224;2023-12-29T07:04:33;7.23;;;1.80;;
5491;SDS011;2768;53.540;10.224;2023-12-29T07:10:28;4.43;;;1.60;;
5491;SDS011;2768;53.540;10.224;2023-12-29T07:16:21;7.20;;;1.90;;
5491;SDS011;2768;53.540;10.224;2023-12-29T07:22:15;7.00;;;2.00;;
5491;SDS011;2768;53.540;10.224;2023-12-29T07:28:11;4.53;;;2.27;;
5491;SDS011;2768;53.540;10.224;2023-12-29T07:34:04;7.13;;;2.50;;
5491;SDS011;2768;53.540;10.224;2023-12-29T07:39:58;10.80;;;2.67;;
5491;SDS011;2768;53.540;10.224;2023-12-29T07:45:53;8.87;;;2.40;;
5491;SDS011;2768;53.540;10.224;2023-12-29T07:51:46;10.80;;;3.40;;
5491;SDS011;2768;53.540;10.224;2023-12-29T07:57:41;6.80;;;2.10;;
5491;SDS011;2768;53.540;10.224;2023-12-29T08:03:36;10.47;;;2.60;;
5491;SDS011;2768;53.540;10.224;2023-12-29T08:09:29;15.03;;;2.73;;
5491;SDS011;2768;53.540;10.224;2023-12-29T08:15:23;9.03;;;3.03;;
5491;SDS011;2768;53.540;10.224;2023-12-29T08:21:17;9.20;;;2.00;;
5491;SDS011;2768;53.540;10.224;2023-12-29T08:27:11;8.93;;;2.80;;
5491;SDS011;2768;53.540;10.224;2023-12-29T08:33:05;16.30;;;3.43;;
5491;SDS011;2768;53.540;10.224;2023-12-29T08:39:00;11.73;;;3.17;;
5491;SDS011;2768;53.540;10.224;2023-12-29T08:44:53;9.07;;;2.30;;
5491;SDS011;2768;53.540;10.224;2023-12-29T08:50:46;8.87;;;2.20;;
5491;SDS011;2768;53.540;10.224;2023-12-29T08:56:42;10.47;;;2.57;;
5491;SDS011;2768;53.540;10.224;2023-12-29T09:02:35;4.20;;;2.20;;
5491;SDS011;2768;53.540;10.224;2023-12-29T09:08:28;10.53;;;2.50;;
5491;SDS011;2768;53.540;10.224;2023-12-29T09:14:23;9.60;;;3.23;;
5491;SDS011;2768;53.540;10.224;2023-12-29T09:20:16;12.00;;;2.80;;
5491;SDS011;2768;53.540;10.224;2023-12-29T09:26:10;7.23;;;2.50;;
5491;SDS011;2768;53.540;10.224;2023-12-29T09:32:05;8.57;;;2.63;;
5491;SDS011;2768;53.540;10.224;2023-12-29T09:37:59;5.87;;;1.93;;
5491;SDS011;2768;53.540;10.224;2023-12-29T09:43:53;6.80;;;2.30;;
5491;SDS011;2768;53.540;10.224;2023-12-29T09:49:48;2.27;;;1.50;;
5491;SDS011;2768;53.540;10.224;2023-12-29T09:55:42;8.13;;;1.87;;
5491;SDS011;2768;53.540;10.224;2023-12-29T10:01:37;3.13;;;1.40;;
5491;SDS011;2768;53.540;10.224;2023-12-29T10:07:36;7.00;;;2.47;;
5491;SDS011;2768;53.540;10.224;2023-12-29T10:13:30;12.80;;;2.83;;
5491;SDS011;2768;53.540;10.224;2023-12-29T10:19:27;10.70;;;2.53;;
5491;SDS011;2768;53.540;10.224;2023-12-29T10:25:29;9.83;;;2.73;;
5491;SDS011;2768;53.540;10.224;2023-12-29T10:31:23;7.40;;;2.23;;
5491;SDS011;2768;53.540;10.224;2023-12-29T10:37:19;7.37;;;1.97;;
5491;SDS011;2768;53.540;10.224;2023-12-29T10:43:17;10.57;;;2.37;;
5491;SDS011;2768;53.540;10.224;2023-12-29T10:49:15;8.30;;;2.90;;
5491;SDS011;2768;53.540;10.224;2023-12-29T10:55:11;8.47;;;2.20;;
5491;SDS011;2768;53.540;10.224;2023-12-29T11:01:06;8.67;;;2.10;;
5491;SDS011;2768;53.540;10.224;2023-12-29T11:07:08;9.17;;;2.27;;
5491;SDS011;2768;53.540;10.224;2023-12-29T11:13:05;9.70;;;2.10;;
5491;SDS011;2768;53.540;10.224;2023-12-29T11:19:01;6.67;;;2.13;;
5491;SDS011;2768;53.540;10.224;2023-12-29T11:24:56;5.13;;;2.20;;
5491;SDS011;2768;53.540;10.224;2023-12-29T11:30:51;4.70;;;1.50;;
5491;SDS011;2768;53.540;10.224;2023-12-29T11:36:46;5.20;;;1.93;;
5491;SDS011;2768;53.540;10.224;2023-12-29T11:42:40;5.00;;;1.43;;
5491;SDS011;2768;53.540;10.224;2023-12-29T11:48:55;4.87;;;1.80;;
5491;SDS011;2768;53.540;10.224;2023-12-29T11:54:51;4.37;;;1.90;;
5491;SDS011;2768;53.540;10.224;2023-12-29T12:00:45;4.50;;;1.70;;
5491;SDS011;2768;53.540;10.224;2023-12-29T12:06:39;4.10;;;1.70;;
5491;SDS011;2768;53.540;10.224;2023-12-29T12:12:39;3.70;;;1.60;;
5491;SDS011;2768;53.540;10.224;2023-12-29T12:18:34;7.53;;;1.97;;
5491;SDS011;2768;53.540;10.224;2023-12-29T12:24:28;6.57;;;2.03;;
5491;SDS011;2768;53.540;10.224;2023-12-29T12:30:23;5.40;;;1.30;;
5491;SDS011;2768;53.540;10.224;2023-12-29T12:36:17;6.00;;;1.63;;
5491;SDS011;2768;53.540;10.224;2023-12-29T12:42:10;7.67;;;2.50;;
5491;SDS011;2768;53.540;10.224;2023-12-29T12:48:09;4.57;;;1.27;;
5491;SDS011;2768;53.540;10.224;2023-12-29T12:54:06;4.20;;;1.40;;
5491;SDS011;2768;53.540;10.224;2023-12-29T13:00:01;4.30;;;1.53;;
5491;SDS011;2768;53.540;10.224;2023-12-29T13:05:59;5.93;;;1.60;;
5491;SDS011;2768;53.540;10.224;2023-12-29T13:12:06;6.20;;;1.27;;
5491;SDS011;2768;53.540;10.224;2023-12-29T13:18:00;2.40;;;1.33;;
5491;SDS011;2768;53.540;10.224;2023-12-29T13:23:55;2.57;;;1.40;;
5491;SDS011;2768;53.540;10.224;2023-12-29T13:29:49;3.67;;;1.70;;
5491;SDS011;2768;53.540;10.224;2023-12-29T13:35:45;3.47;;;1.33;;
5491;SDS011;2768;53.540;10.224;2023-12-29T13:41:54;6.23;;;1.50;;
5491;SDS011;2768;53.540;10.224;2023-12-29T13:47:48;2.50;;;1.13;;
5491;SDS011;2768;53.540;10.224;2023-12-29T13:53:42;3.13;;;1.07;;
5491;SDS011;2768;53.540;10.224;2023-12-29T13:59:37;3.43;;;1.23;;
5491;SDS011;2768;53.540;10.224;2023-12-29T14:05:31;3.80;;;1.30;;
5491;SDS011;2768;53.540;10.224;2023-12-29T14:11:29;5.80;;;1.80;;
5491;SDS011;2768;53.540;10.224;2023-12-29T14:17:25;6.97;;;1.97;;
5491;SDS011;2768;53.540;10.224;2023-12-29T14:23:20;3.90;;;1.90;;
5491;SDS011;2768;53.540;10.224;2023-12-29T14:29:13;4.10;;;1.63;;
5491;SDS011;2768;53.540;10.224;2023-12-29T14:35:09;6.20;;;1.87;;
5491;SDS011;2768;53.540;10.224;2023-12-29T14:41:03;6.00;;;1.63;;
5491;SDS011;2768;53.540;10.224;2023-12-29T14:46:56;8.23;;;2.07;;
5491;SDS011;2768;53.540;10.224;2023-12-29T14:52:51;4.73;;;1.50;;
5491;SDS011;2768;53.540;10.224;2023-12-29T14:58:45;5.87;;;2.10;;
5491;SDS011;2768;53.540;10.224;2023-12-29T15:04:38;4.97;;;1.80;;
5491;SDS011;2768;53.540;10.224;2023-12-29T15:10:33;7.53;;;2.33;;
5491;SDS011;2768;53.540;10.224;2023-12-29T15:16:27;6.93;;;1.73;;
5491;SDS011;2768;53.540;10.224;2023-12-29T15:22:20;8.63;;;2.60;;
5491;SDS011;2768;53.540;10.224;2023-12-29T15:28:18;6.30;;;2.30;;
5491;SDS011;2768;53.540;10.224;2023-12-29T15:34:13;7.10;;;2.13;;
5491;SDS011;2768;53.540;10.224;2023-12-29T15:40:07;8.60;;;4.07;;
5491;SDS011;2768;53.540;10.224;2023-12-29T15:46:03;8.63;;;2.53;;
5491;SDS011;2768;53.540;10.224;2023-12-29T15:52:05;11.33;;;2.97;;
5491;SDS011;2768;53.540;10.224;2023-12-29T15:57:59;7.20;;;2.10;;
5491;SDS011;2768;53.540;10.224;2023-12-29T16:03:54;5.83;;;1.60;;
5491;SDS011;2768;53.540;10.224;2023-12-29T16:09:50;11.60;;;2.10;;
5491;SDS011;2768;53.540;10.224;2023-12-29T16:15:44;7.70;;;3.40;;
5491;SDS011;2768;53.540;10.224;2023-12-29T16:21:39;10.03;;;2.40;;
5491;SDS011;2768;53.540;10.224;2023-12-29T16:27:34;8.40;;;2.87;;
5491;SDS011;2768;53.540;10.224;2023-12-29T16:33:27;9.90;;;2.67;;
5491;SDS011;2768;53.540;10.224;2023-12-29T16:39:26;7.33;;;2.13;;
5491;SDS011;2768;53.540;10.224;2023-12-29T16:45:19;7.00;;;1.80;;
5491;SDS011;2768;53.540;10.224;2023-12-29T16:51:13;6.33;;;2.00;;
5491;SDS011;2768;53.540;10.224;2023-12-29T16:57:08;9.93;;;2.37;;
5491;SDS011;2768;53.540;10.224;2023-12-29T17:03:01;7.50;;;2.00;;
5491;SDS011;2768;53.540;10.224;2023-12-29T17:08:56;18.00;;;3.27;;
5491;SDS011;2768;53.540;10.224;2023-12-29T17:14:51;9.73;;;2.63;;
5491;SDS011;2768;53.540;10.224;2023-12-29T17:20:44;6.30;;;2.20;;
5491;SDS011;2768;53.540;10.224;2023-12-29T17:26:38;13.10;;;2.80;;
5491;SDS011;2768;53.540;10.224;2023-12-29T17:32:32;6.20;;;2.17;;
5491;SDS011;2768;53.540;10.224;2023-12-29T17:38:26;8.10;;;2.50;;
5491;SDS011;2768;53.540;10.224;2023-12-29T17:44:19;7.33;;;2.33;;
5491;SDS011;2768;53.540;10.224;2023-12-29T17:50:14;10.27;;;2.40;;
5491;SDS011;2768;53.540;10.224;2023-12-29T17:56:08;9.00;;;2.30;;
5491;SDS011;2768;53.540;10.224;2023-12-29T18:02:01;9.37;;;2.47;;
5491;SDS011;2768;53.540;10.224;2023-12-29T18:07:56;7.30;;;2.50;;
5491;SDS011;2768;53.540;10.224;2023-12-29T18:13:50;6.20;;;2.60;;
5491;SDS011;2768;53.540;10.224;2023-12-29T18:19:43;9.40;;;2.23;;
5491;SDS011;2768;53.540;10.224;2023-12-29T18:25:38;11.60;;;2.67;;
5491;SDS011;2768;53.540;10.224;2023-12-29T18:31:32;10.70;;;3.17;;
5491;SDS011;2768;53.540;10.224;2023-12-29T18:37:25;11.13;;;2.70;;
5491;SDS011;2768;53.540;10.224;2023-12-29T18:43:19;13.30;;;2.83;;
5491;SDS011;2768;53.540;10.224;2023-12-29T18:49:13;9.23;;;3.27;;
5491;SDS011;2768;53.540;10.224;2023-12-29T18:55:08;9.40;;;2.30;;
5491;SDS011;2768;53.540;10.224;2023-12-29T19:01:05;6.50;;;2.07;;
5491;SDS011;2768;53.540;10.224;2023-12-29T19:06:58;5.90;;;2.50;;
5491;SDS011;2768;53.540;10.224;2023-12-29T19:12:52;9.70;;;2.20;;
5491;SDS011;2768;53.540;10.224;2023-12-29T19:18:47;7.43;;;2.00;;
5491;SDS011;2768;53.540;10.224;2023-12-29T19:24:41;8.57;;;2.57;;
5491;SDS011;2768;53.540;10.224;2023-12-29T19:30:36;8.70;;;3.50;;
5491;SDS011;2768;53.540;10.224;2023-12-29T19:36:34;13.77;;;2.70;;
5491;SDS011;2768;53.540;10.224;2023-12-29T19:42:27;10.07;;;3.30;;
5491;SDS011;2768;53.540;10.224;2023-12-29T19:48:20;6.43;;;2.10;;
5491;SDS011;2768;53.540;10.224;2023-12-29T19:54:15;7.80;;;2.87;;
5491;SDS011;2768;53.540;10.224;2023-12-29T20:00:08;7.23;;;2.80;;
5491;SDS011;2768;53.540;10.224;2023-12-29T20:06:02;5.03;;;1.90;;
5491;SDS011;2768;53.540;10.224;2023-12-29T20:11:57;7.90;;;2.13;;
5491;SDS011;2768;53.540;10.224;2023-12-29T20:17:51;7.47;;;2.47;;
5491;SDS011;2768;53.540;10.224;2023-12-29T20:23:45;7.80;;;2.50;;
5491;SDS011;2768;53.540;10.224;2023-12-29T20:29:39;8.70;;;2.90;;
5491;SDS011;2768;53.540;10.224;2023-12-29T20:35:32;6.17;;;2.07;;
5491;SDS011;2768;53.540;10.224;2023-12-29T20:41:26;4.70;;;2.03;;
5491;SDS011;2768;53.540;10.224;2023-12-29T20:47:20;2.77;;;1.60;;
5491;SDS011;2768;53.540;10.224;2023-12-29T20:53:13;5.47;;;1.50;;
5491;SDS011;2768;53.540;10.224;2023-12-29T20:59:07;2.73;;;1.20;;
5491;SDS011;2768;53.540;10.224;2023-12-29T21:05:02;2.60;;;1.13;;
5491;SDS011;2768;53.540;10.224;2023-12-29T21:11:01;6.43;;;1.50;;
5491;SDS011;2768;53.540;10.224;2023-12-29T21:16:55;2.10;;;1.23;;
5491;SDS011;2768;53.540;10.224;2023-12-29T21:22:49;3.70;;;1.50;;
5491;SDS011;2768;53.540;10.224;2023-12-29T21:28:43;1.30;;;1.20;;
5491;SDS011;2768;53.540;10.224;2023-12-29T21:34:36;1.43;;;0.90;;
5491;SDS011;2768;53.540;10.224;2023-12-29T21:40:31;3.63;;;1.00;;
5491;SDS011;2768;53.540;10.224;2023-12-29T21:46:24;3.37;;;1.10;;
5491;SDS011;2768;53.540;10.224;2023-12-29T21:52:18;1.97;;;0.73;;
5491;SDS011;2768;53.540;10.224;2023-12-29T21:58:12;3.60;;;0.90;;
5491;SDS011;2768;53.540;10.224;2023-12-29T22:04:06;3.03;;;1.30;;
5491;SDS011;2768;53.540;10.224;2023-12-29T22:10:01;1.30;;;1.00;;
5491;SDS011;2768;53.540;10.224;2023-12-29T22:15:56;2.17;;;0.93;;
5491;SDS011;2768;53.540;10.224;2023-12-29T22:21:49;2.57;;;1.00;;
5491;SDS011;2768;53.540;10.224;2023-12-29T22:27:44;1.13;;;1.00;;
5491;SDS011;2768;53.540;10.224;2023-12-29T22:33:39;2.17;;;0.90;;
5491;SDS011;2768;53.540;10.224;2023-12-29T22:39:33;3.43;;;1.00;;
5491;SDS011;2768;53.540;10.224;2023-12-29T22:45:27;1.83;;;0.97;;
5491;SDS011;2768;53.540;10.224;2023-12-29T22:51:24;2.53;;;0.90;;
5491;SDS011;2768;53.540;10.224;2023-12-29T22:57:20;2.20;;;1.20;;
5491;SDS011;2768;53.540;10.224;2023-12-29T23:03:14;2.20;;;0.90;;
5491;SDS011;2768;53.540;10.224;2023-12-29T23:09:09;3.70;;;1.17;;
5491;SDS011;2768;53.540;10.224;2023-12-29T23:15:07;2.07;;;1.13;;
5491;SDS011;2768;53.540;10.224;2023-12-29T23:21:01;3.70;;;1.67;;
5491;SDS011;2768;53.540;10.224;2023-12-29T23:26:55;1.90;;;0.90;;
5491;SDS011;2768;53.540;10.224;2023-12-29T23:32:49;2.40;;;0.90;;
5491;SDS011;2768;53.540;10.224;2023-12-29T23:38:43;2.30;;;1.23;;
5491;SDS011;2768;53.540;10.224;2023-12-29T23:44:38;3.33;;;1.20;;
5491;SDS011;2768;53.540;10.224;2023-12-29T23:50:31;2.17;;;0.90;;
5491;SDS011;2768;53.540;10.224;2023-12-29T23:56:24;3.40;;;1.30;;
